In Rescue
 
Open Full Screen Window  High Contrast Mode
Wind Gusting 26 knots
19
March 01, 2024 3:50 PM CST
Weather Information
Wind Direction
  220 °
Wind Speed
  19 kt (22 mph)
Wind Gust
  26 kt (30 mph)
Altimeter
29.72 in
Visibility
10 SM
Temperature
14° C
57° F
Dewpoint
00° C
32° F
Humidity
38%
Sky Condition
Clear
VFR

METAR KDVP 012150Z AUTO 22019G26KT 10SM CLR 14/00 A2972 RMK AO2 T01400000

FAA Disclaimer: The data displayed is for advisory purposes only and is not to be used for flight planning or operations.